Dien Bien Phu Airport


Codes: VVDB/DIN
Name: Dien Bien Phu Airport
City: Dien Bien Phu
Country: Vietnam
Elevation: 1611 ft.
Wikipedia:

Photos at Dien Bien Phu Airport


   Photos courtesy of SpottingLog. You can add your own sightings and photos by signing up for a free trial today.



No photos found.

Weather at Dien Bien Phu Airport


Time (UTC)DescriptionTempratureWindCloud coverageVisibilityPressureHumidity
19-Apr-2024 06:00Overcast Clouds35°C9 mph, SW100%10000m1004hPa28%
19-Apr-2024 09:00Broken Clouds33°C2 mph, NW83%10000m1002hPa30%
19-Apr-2024 12:00Light Rain26°C2 mph, E88%10000m1002hPa57%
19-Apr-2024 15:00Light Rain23°C2 mph, N91%10000m1006hPa75%
19-Apr-2024 18:00Overcast Clouds23°C0 mph, W95%10000m1005hPa76%
19-Apr-2024 21:00Light Rain21°C0 mph, NE72%10000m1005hPa90%
20-Apr-2024 00:00Light Rain22°C0 mph, SW72%10000m1007hPa85%
20-Apr-2024 03:00Clear Sky34°C4 mph, SW6%10000m1005hPa35%
20-Apr-2024 06:00Scattered Clouds35°C4 mph, SW30%10000m1001hPa28%
20-Apr-2024 09:00Scattered Clouds37°C4 mph, SW40%10000m998hPa22%
20-Apr-2024 12:00Light Rain26°C4 mph, SE53%10000m1002hPa52%
20-Apr-2024 15:00Few Clouds23°C2 mph, NE15%10000m1004hPa61%
20-Apr-2024 18:00Broken Clouds25°C2 mph, SE60%10000m1004hPa60%
20-Apr-2024 21:00Light Rain22°C2 mph, SE77%10000m1004hPa76%
21-Apr-2024 00:00Broken Clouds24°C0 mph, NE65%10000m1006hPa67%
21-Apr-2024 03:00Clear Sky36°C4 mph, SW5%10000m1006hPa29%
21-Apr-2024 06:00Few Clouds39°C4 mph, SW15%10000m1001hPa18%
21-Apr-2024 09:00Overcast Clouds36°C2 mph, SW94%10000m998hPa18%
21-Apr-2024 12:00Broken Clouds31°C0 mph, E77%10000m1000hPa24%
21-Apr-2024 15:00Broken Clouds29°C2 mph, E82%10000m1003hPa28%
21-Apr-2024 18:00Broken Clouds27°C0 mph, SE83%10000m1003hPa32%
21-Apr-2024 21:00Broken Clouds25°C2 mph, S68%10000m1004hPa37%
22-Apr-2024 00:00Broken Clouds27°C0 mph, S69%10000m1006hPa38%
22-Apr-2024 03:00Clear Sky37°C4 mph, W1%10000m1005hPa19%
22-Apr-2024 06:00Few Clouds41°C9 mph, W17%10000m1000hPa14%
22-Apr-2024 09:00Scattered Clouds41°C7 mph, W34%10000m998hPa12%
22-Apr-2024 12:00Scattered Clouds31°C2 mph, S37%10000m1001hPa25%
22-Apr-2024 15:00Overcast Clouds29°C2 mph, SE100%10000m1003hPa30%
22-Apr-2024 18:00Broken Clouds24°C4 mph, E77%10000m1004hPa53%
22-Apr-2024 21:00Broken Clouds24°C2 mph, E71%10000m1004hPa92%
23-Apr-2024 00:00Light Rain25°C2 mph, E61%10000m1007hPa87%
23-Apr-2024 03:00Scattered Clouds35°C2 mph, E44%10000m1006hPa42%
23-Apr-2024 06:00Scattered Clouds41°C2 mph, SW30%10000m1001hPa20%
23-Apr-2024 09:00Overcast Clouds41°C7 mph, SW85%10000m997hPa15%
23-Apr-2024 12:00Broken Clouds32°C2 mph, S83%10000m1000hPa26%
23-Apr-2024 15:00Overcast Clouds28°C4 mph, E100%10000m1004hPa54%
23-Apr-2024 18:00Broken Clouds24°C2 mph, E55%10000m1005hPa83%
23-Apr-2024 21:00Overcast Clouds24°C2 mph, E87%10000m1005hPa86%
24-Apr-2024 00:00Broken Clouds25°C2 mph, E62%10000m1007hPa81%
24-Apr-2024 03:00Clear Sky36°C2 mph, SW8%10000m1006hPa35%